sensor_id;sensor_type;location;lat;lon;timestamp;pressure;altitude;pressure_sealevel;temperature;humidity
39265;BME280;42646;51.910;7.724;2022-12-08T00:01:33;100358.59;;;2.92;100.00
39265;BME280;42646;51.910;7.724;2022-12-08T00:04:02;100355.88;;;2.94;100.00
39265;BME280;42646;51.910;7.724;2022-12-08T00:06:37;100362.34;;;2.88;100.00
39265;BME280;42646;51.910;7.724;2022-12-08T00:09:28;100350.34;;;2.84;100.00
39265;BME280;42646;51.910;7.724;2022-12-08T00:12:06;100351.50;;;2.80;100.00
39265;BME280;42646;51.910;7.724;2022-12-08T00:14:36;100349.06;;;2.77;100.00
39265;BME280;42646;51.910;7.724;2022-12-08T00:17:07;100346.53;;;2.76;100.00
39265;BME280;42646;51.910;7.724;2022-12-08T00:19:59;100347.56;;;2.73;100.00
39265;BME280;42646;51.910;7.724;2022-12-08T00:22:28;100333.78;;;2.70;100.00
39265;BME280;42646;51.910;7.724;2022-12-08T00:24:57;100333.13;;;2.66;100.00
39265;BME280;42646;51.910;7.724;2022-12-08T00:27:26;100343.72;;;2.64;100.00
39265;BME280;42646;51.910;7.724;2022-12-08T00:29:54;100341.22;;;2.63;100.00
39265;BME280;42646;51.910;7.724;2022-12-08T00:32:21;100329.97;;;2.61;100.00
39265;BME280;42646;51.910;7.724;2022-12-08T00:34:49;100330.03;;;2.59;100.00
39265;BME280;42646;51.910;7.724;2022-12-08T00:37:18;100317.13;;;2.56;100.00
39265;BME280;42646;51.910;7.724;2022-12-08T00:39:48;100318.06;;;2.55;100.00
39265;BME280;42646;51.910;7.724;2022-12-08T00:42:16;100312.97;;;2.52;100.00
39265;BME280;42646;51.910;7.724;2022-12-08T00:44:44;100308.78;;;2.50;100.00
39265;BME280;42646;51.910;7.724;2022-12-08T00:47:14;100308.00;;;2.48;100.00
39265;BME280;42646;51.910;7.724;2022-12-08T00:49:47;100309.16;;;2.44;100.00
39265;BME280;42646;51.910;7.724;2022-12-08T00:52:15;100302.31;;;2.41;100.00
39265;BME280;42646;51.910;7.724;2022-12-08T00:54:42;100312.91;;;2.39;100.00
39265;BME280;42646;51.910;7.724;2022-12-08T00:57:12;100312.16;;;2.37;100.00
39265;BME280;42646;51.910;7.724;2022-12-08T00:59:40;100308.78;;;2.35;100.00
39265;BME280;42646;51.910;7.724;2022-12-08T01:02:07;100302.78;;;2.33;100.00
39265;BME280;42646;51.910;7.724;2022-12-08T01:04:38;100305.41;;;2.33;100.00
39265;BME280;42646;51.910;7.724;2022-12-08T01:07:08;100301.16;;;2.31;100.00
39265;BME280;42646;51.910;7.724;2022-12-08T01:09:37;100306.41;;;2.31;100.00
39265;BME280;42646;51.910;7.724;2022-12-08T01:12:05;100304.84;;;2.28;100.00
39265;BME280;42646;51.910;7.724;2022-12-08T01:14:35;100301.47;;;2.26;100.00
39265;BME280;42646;51.910;7.724;2022-12-08T01:17:02;100309.44;;;2.25;100.00
39265;BME280;42646;51.910;7.724;2022-12-08T01:19:30;100316.56;;;2.23;100.00
39265;BME280;42646;51.910;7.724;2022-12-08T01:21:58;100317.59;;;2.20;100.00
39265;BME280;42646;51.910;7.724;2022-12-08T01:24:26;100315.88;;;2.19;100.00
39265;BME280;42646;51.910;7.724;2022-12-08T01:26:53;100312.44;;;2.19;100.00
39265;BME280;42646;51.910;7.724;2022-12-08T01:29:21;100318.72;;;2.16;100.00
39265;BME280;42646;51.910;7.724;2022-12-08T01:31:50;100313.56;;;2.14;100.00
39265;BME280;42646;51.910;7.724;2022-12-08T01:34:19;100320.59;;;2.14;100.00
39265;BME280;42646;51.910;7.724;2022-12-08T01:36:47;100320.59;;;2.14;100.00
39265;BME280;42646;51.910;7.724;2022-12-08T01:39:16;100311.69;;;2.17;100.00
39265;BME280;42646;51.910;7.724;2022-12-08T01:41:45;100319.47;;;2.18;100.00
39265;BME280;42646;51.910;7.724;2022-12-08T01:44:49;100316.75;;;2.20;100.00
39265;BME280;42646;51.910;7.724;2022-12-08T01:47:21;100309.44;;;2.25;100.00
39265;BME280;42646;51.910;7.724;2022-12-08T01:49:51;100313.66;;;2.27;100.00
39265;BME280;42646;51.910;7.724;2022-12-08T01:52:22;100310.94;;;2.29;100.00
39265;BME280;42646;51.910;7.724;2022-12-08T01:54:55;100303.72;;;2.32;100.00
39265;BME280;42646;51.910;7.724;2022-12-08T01:57:51;100298.16;;;2.37;100.00
39265;BME280;42646;51.910;7.724;2022-12-08T02:00:21;100298.84;;;2.40;100.00
39265;BME280;42646;51.910;7.724;2022-12-08T02:02:55;100294.31;;;2.42;100.00
39265;BME280;42646;51.910;7.724;2022-12-08T02:05:26;100292.91;;;2.51;100.00
39265;BME280;42646;51.910;7.724;2022-12-08T02:07:55;100287.78;;;2.50;100.00
39265;BME280;42646;51.910;7.724;2022-12-08T02:10:27;100289.25;;;2.54;100.00
39265;BME280;42646;51.910;7.724;2022-12-08T02:12:57;100288.78;;;2.61;100.00
39265;BME280;42646;51.910;7.724;2022-12-08T02:15:31;100279.19;;;2.60;100.00
39265;BME280;42646;51.910;7.724;2022-12-08T02:18:17;100287.00;;;2.62;100.00
39265;BME280;42646;51.910;7.724;2022-12-08T02:20:58;100278.81;;;2.66;100.00
39265;BME280;42646;51.910;7.724;2022-12-08T02:23:35;100271.69;;;2.68;100.00
39265;BME280;42646;51.910;7.724;2022-12-08T02:26:41;100270.25;;;2.77;100.00
39265;BME280;42646;51.910;7.724;2022-12-08T02:29:33;100265.09;;;2.76;100.00
39265;BME280;42646;51.910;7.724;2022-12-08T02:32:22;100256.84;;;2.82;100.00
39265;BME280;42646;51.910;7.724;2022-12-08T02:35:02;100252.13;;;2.87;100.00
39265;BME280;42646;51.910;7.724;2022-12-08T02:37:39;100251.91;;;2.90;100.00
39265;BME280;42646;51.910;7.724;2022-12-08T02:40:13;100244.97;;;2.89;100.00
39265;BME280;42646;51.910;7.724;2022-12-08T02:42:47;100247.41;;;2.92;100.00
39265;BME280;42646;51.910;7.724;2022-12-08T02:45:24;100240.16;;;2.95;100.00
39265;BME280;42646;51.910;7.724;2022-12-08T02:47:57;100243.63;;;2.96;100.00
39265;BME280;42646;51.910;7.724;2022-12-08T02:50:26;100246.06;;;2.99;100.00
39265;BME280;42646;51.910;7.724;2022-12-08T02:53:02;100245.03;;;3.02;100.00
39265;BME280;42646;51.910;7.724;2022-12-08T02:55:38;100237.06;;;3.03;100.00
39265;BME280;42646;51.910;7.724;2022-12-08T03:01:32;100224.53;;;3.07;100.00
39265;BME280;42646;51.910;7.724;2022-12-08T03:04:10;100222.75;;;3.07;100.00
39265;BME280;42646;51.910;7.724;2022-12-08T03:06:47;100221.81;;;3.08;100.00
39265;BME280;42646;51.910;7.724;2022-12-08T03:09:21;100219.81;;;3.12;100.00
39265;BME280;42646;51.910;7.724;2022-12-08T03:11:55;100207.53;;;3.12;100.00
39265;BME280;42646;51.910;7.724;2022-12-08T03:14:27;100203.03;;;3.14;100.00
39265;BME280;42646;51.910;7.724;2022-12-08T03:16:59;100202.16;;;3.14;100.00
39265;BME280;42646;51.910;7.724;2022-12-08T03:19:31;100196.06;;;3.13;100.00
39265;BME280;42646;51.910;7.724;2022-12-08T03:22:04;100186.31;;;3.15;100.00
39265;BME280;42646;51.910;7.724;2022-12-08T03:24:35;100185.25;;;3.18;100.00
39265;BME280;42646;51.910;7.724;2022-12-08T03:27:07;100181.69;;;3.19;100.00
39265;BME280;42646;51.910;7.724;2022-12-08T03:29:36;100181.59;;;3.20;100.00
39265;BME280;42646;51.910;7.724;2022-12-08T03:32:08;100174.31;;;3.24;100.00
39265;BME280;42646;51.910;7.724;2022-12-08T03:34:41;100170.84;;;3.24;100.00
39265;BME280;42646;51.910;7.724;2022-12-08T03:37:12;100173.38;;;3.25;100.00
39265;BME280;42646;51.910;7.724;2022-12-08T03:39:40;100176.00;;;3.25;100.00
39265;BME280;42646;51.910;7.724;2022-12-08T03:42:08;100175.69;;;3.30;100.00
39265;BME280;42646;51.910;7.724;2022-12-08T03:44:37;100174.88;;;3.29;100.00
39265;BME280;42646;51.910;7.724;2022-12-08T03:47:04;100170.44;;;3.30;100.00
39265;BME280;42646;51.910;7.724;2022-12-08T03:49:34;100161.31;;;3.35;100.00
39265;BME280;42646;51.910;7.724;2022-12-08T03:52:03;100162.13;;;3.36;100.00
39265;BME280;42646;51.910;7.724;2022-12-08T03:54:32;100158.66;;;3.35;100.00
39265;BME280;42646;51.910;7.724;2022-12-08T03:56:59;100158.56;;;3.37;100.00
39265;BME280;42646;51.910;7.724;2022-12-08T03:59:27;100150.59;;;3.38;100.00
39265;BME280;42646;51.910;7.724;2022-12-08T04:01:59;100147.97;;;3.38;100.00
39265;BME280;42646;51.910;7.724;2022-12-08T04:04:26;100145.22;;;3.40;100.00
39265;BME280;42646;51.910;7.724;2022-12-08T04:06:56;100145.84;;;3.43;100.00
39265;BME280;42646;51.910;7.724;2022-12-08T04:09:28;100140.56;;;3.43;100.00
39265;BME280;42646;51.910;7.724;2022-12-08T04:11:59;100136.06;;;3.45;100.00
39265;BME280;42646;51.910;7.724;2022-12-08T04:14:26;100138.47;;;3.48;100.00
39265;BME280;42646;51.910;7.724;2022-12-08T04:16:55;100132.19;;;3.51;100.00
39265;BME280;42646;51.910;7.724;2022-12-08T04:19:23;100136.69;;;3.49;100.00
39265;BME280;42646;51.910;7.724;2022-12-08T04:21:50;100134.06;;;3.49;100.00
39265;BME280;42646;51.910;7.724;2022-12-08T04:24:20;100130.81;;;3.45;100.00
39265;BME280;42646;51.910;7.724;2022-12-08T04:26:48;100124.47;;;3.48;100.00
39265;BME280;42646;51.910;7.724;2022-12-08T04:29:17;100125.31;;;3.48;100.00
39265;BME280;42646;51.910;7.724;2022-12-08T04:31:45;100122.50;;;3.52;100.00
39265;BME280;42646;51.910;7.724;2022-12-08T04:34:13;100122.69;;;3.48;100.00
39265;BME280;42646;51.910;7.724;2022-12-08T04:36:41;100117.34;;;3.50;100.00
39265;BME280;42646;51.910;7.724;2022-12-08T04:39:10;100119.88;;;3.52;100.00
39265;BME280;42646;51.910;7.724;2022-12-08T04:41:37;100114.59;;;3.52;100.00
39265;BME280;42646;51.910;7.724;2022-12-08T04:44:08;100111.03;;;3.53;100.00
39265;BME280;42646;51.910;7.724;2022-12-08T04:46:38;100115.34;;;3.54;100.00
39265;BME280;42646;51.910;7.724;2022-12-08T04:49:09;100105.75;;;3.53;100.00
39265;BME280;42646;51.910;7.724;2022-12-08T04:51:37;100111.03;;;3.53;100.00
39265;BME280;42646;51.910;7.724;2022-12-08T04:54:04;100111.88;;;3.53;100.00
39265;BME280;42646;51.910;7.724;2022-12-08T04:56:35;100110.72;;;3.57;100.00
39265;BME280;42646;51.910;7.724;2022-12-08T04:59:03;100111.75;;;3.55;100.00
39265;BME280;42646;51.910;7.724;2022-12-08T05:01:31;100109.97;;;3.55;100.00
39265;BME280;42646;51.910;7.724;2022-12-08T05:04:03;100096.50;;;3.60;100.00
39265;BME280;42646;51.910;7.724;2022-12-08T05:06:30;100106.19;;;3.59;100.00
39265;BME280;42646;51.910;7.724;2022-12-08T05:08:58;100103.66;;;3.58;100.00
39265;BME280;42646;51.910;7.724;2022-12-08T05:11:32;100107.84;;;3.60;100.00
39265;BME280;42646;51.910;7.724;2022-12-08T05:14:00;100107.25;;;3.57;100.00
39265;BME280;42646;51.910;7.724;2022-12-08T05:16:29;100105.44;;;3.57;100.00
39265;BME280;42646;51.910;7.724;2022-12-08T05:18:57;100098.91;;;3.63;100.00
39265;BME280;42646;51.910;7.724;2022-12-08T05:21:26;100094.69;;;3.60;100.00
39265;BME280;42646;51.910;7.724;2022-12-08T05:23:53;100098.69;;;3.66;100.00
39265;BME280;42646;51.910;7.724;2022-12-08T05:26:24;100096.50;;;3.60;100.00
39265;BME280;42646;51.910;7.724;2022-12-08T05:28:52;100095.66;;;3.59;100.00
39265;BME280;42646;51.910;7.724;2022-12-08T05:31:20;100092.06;;;3.60;100.00
39265;BME280;42646;51.910;7.724;2022-12-08T05:33:51;100092.19;;;3.59;100.00
39265;BME280;42646;51.910;7.724;2022-12-08T05:36:19;100082.38;;;3.61;100.00
39265;BME280;42646;51.910;7.724;2022-12-08T05:38:49;100080.50;;;3.63;100.00
39265;BME280;42646;51.910;7.724;2022-12-08T05:41:19;100074.50;;;3.61;100.00
39265;BME280;42646;51.910;7.724;2022-12-08T05:43:47;100074.50;;;3.61;100.00
39265;BME280;42646;51.910;7.724;2022-12-08T05:46:15;100080.50;;;3.63;100.00
39265;BME280;42646;51.910;7.724;2022-12-08T05:48:45;100080.16;;;3.67;100.00
39265;BME280;42646;51.910;7.724;2022-12-08T05:51:18;100076.94;;;3.64;100.00
39265;BME280;42646;51.910;7.724;2022-12-08T05:53:52;100081.34;;;3.63;100.00
39265;BME280;42646;51.910;7.724;2022-12-08T05:56:20;100069.16;;;3.62;100.00
39265;BME280;42646;51.910;7.724;2022-12-08T05:58:49;100072.72;;;3.61;100.00
39265;BME280;42646;51.910;7.724;2022-12-08T06:01:18;100078.84;;;3.62;100.00
39265;BME280;42646;51.910;7.724;2022-12-08T06:03:47;100067.38;;;3.63;100.00
39265;BME280;42646;51.910;7.724;2022-12-08T06:06:16;100064.72;;;3.63;100.00
39265;BME280;42646;51.910;7.724;2022-12-08T06:08:44;100069.03;;;3.64;100.00
39265;BME280;42646;51.910;7.724;2022-12-08T06:11:18;100065.44;;;3.65;100.00
39265;BME280;42646;51.910;7.724;2022-12-08T06:13:46;100065.34;;;3.66;100.00
39265;BME280;42646;51.910;7.724;2022-12-08T06:16:14;100056.59;;;3.66;100.00
39265;BME280;42646;51.910;7.724;2022-12-08T06:18:42;100060.91;;;3.67;100.00
39265;BME280;42646;51.910;7.724;2022-12-08T06:21:11;100060.06;;;3.66;100.00
39265;BME280;42646;51.910;7.724;2022-12-08T06:23:40;100067.97;;;3.66;100.00
39265;BME280;42646;51.910;7.724;2022-12-08T06:26:10;100055.44;;;3.70;100.00
39265;BME280;42646;51.910;7.724;2022-12-08T06:28:40;100066.28;;;3.65;100.00
39265;BME280;42646;51.910;7.724;2022-12-08T06:31:14;100062.09;;;3.63;100.00
39265;BME280;42646;51.910;7.724;2022-12-08T06:33:43;100063.78;;;3.64;100.00
39265;BME280;42646;51.910;7.724;2022-12-08T06:36:13;100070.94;;;3.62;100.00
39265;BME280;42646;51.910;7.724;2022-12-08T06:38:42;100055.88;;;3.64;100.00
39265;BME280;42646;51.910;7.724;2022-12-08T06:41:10;100060.31;;;3.63;100.00
39265;BME280;42646;51.910;7.724;2022-12-08T06:43:40;100056.94;;;3.61;100.00
39265;BME280;42646;51.910;7.724;2022-12-08T06:46:11;100057.44;;;3.66;100.00
39265;BME280;42646;51.910;7.724;2022-12-08T06:48:40;100064.94;;;3.60;100.00
39265;BME280;42646;51.910;7.724;2022-12-08T06:51:09;100067.38;;;3.63;100.00
39265;BME280;42646;51.910;7.724;2022-12-08T06:53:38;100070.44;;;3.57;100.00
39265;BME280;42646;51.910;7.724;2022-12-08T06:56:08;100062.63;;;3.55;100.00
39265;BME280;42646;51.910;7.724;2022-12-08T06:58:41;100067.88;;;3.55;100.00
39265;BME280;42646;51.910;7.724;2022-12-08T07:01:17;100068.72;;;3.56;100.00
39265;BME280;42646;51.910;7.724;2022-12-08T07:03:45;100064.31;;;3.56;100.00
39265;BME280;42646;51.910;7.724;2022-12-08T07:06:15;100067.78;;;3.57;100.00
39265;BME280;42646;51.910;7.724;2022-12-08T07:08:45;100060.81;;;3.56;100.00
39265;BME280;42646;51.910;7.724;2022-12-08T07:11:16;100065.25;;;3.55;100.00
39265;BME280;42646;51.910;7.724;2022-12-08T07:13:49;100066.97;;;3.56;100.00
39265;BME280;42646;51.910;7.724;2022-12-08T07:16:17;100070.44;;;3.57;100.00
39265;BME280;42646;51.910;7.724;2022-12-08T07:18:47;100066.84;;;3.58;100.00
39265;BME280;42646;51.910;7.724;2022-12-08T07:21:16;100074.84;;;3.56;100.00
39265;BME280;42646;51.910;7.724;2022-12-08T07:23:45;100075.44;;;3.60;100.00
39265;BME280;42646;51.910;7.724;2022-12-08T07:26:19;100075.69;;;3.57;100.00
39265;BME280;42646;51.910;7.724;2022-12-08T07:28:48;100081.03;;;3.55;100.00
39265;BME280;42646;51.910;7.724;2022-12-08T07:31:19;100076.59;;;3.56;100.00
39265;BME280;42646;51.910;7.724;2022-12-08T07:33:48;100081.78;;;3.57;100.00
39265;BME280;42646;51.910;7.724;2022-12-08T07:36:18;100078.50;;;3.54;100.00
39265;BME280;42646;51.910;7.724;2022-12-08T07:38:46;100075.88;;;3.54;100.00
39265;BME280;42646;51.910;7.724;2022-12-08T07:41:16;100078.50;;;3.54;100.00
39265;BME280;42646;51.910;7.724;2022-12-08T07:43:44;100088.09;;;3.55;100.00
39265;BME280;42646;51.910;7.724;2022-12-08T07:46:15;100074.22;;;3.53;100.00
39265;BME280;42646;51.910;7.724;2022-12-08T07:48:43;100075.88;;;3.54;100.00
39265;BME280;42646;51.910;7.724;2022-12-08T07:51:16;100075.78;;;3.55;100.00
39265;BME280;42646;51.910;7.724;2022-12-08T07:53:46;100076.84;;;3.53;100.00
39265;BME280;42646;51.910;7.724;2022-12-08T07:56:20;100074.94;;;3.55;100.00
39265;BME280;42646;51.910;7.724;2022-12-08T07:58:48;100075.88;;;3.54;100.00
39265;BME280;42646;51.910;7.724;2022-12-08T08:01:23;100076.00;;;3.52;100.00
39265;BME280;42646;51.910;7.724;2022-12-08T08:03:52;100076.19;;;3.49;100.00
39265;BME280;42646;51.910;7.724;2022-12-08T08:06:20;100073.69;;;3.47;100.00
39265;BME280;42646;51.910;7.724;2022-12-08T08:08:48;100069.25;;;3.48;100.00
39265;BME280;42646;51.910;7.724;2022-12-08T08:11:16;100078.00;;;3.48;100.00
39265;BME280;42646;51.910;7.724;2022-12-08T08:13:47;100084.00;;;3.51;100.00
39265;BME280;42646;51.910;7.724;2022-12-08T08:16:15;100075.28;;;3.50;100.00
39265;BME280;42646;51.910;7.724;2022-12-08T08:18:46;100084.00;;;3.51;100.00
39265;BME280;42646;51.910;7.724;2022-12-08T08:21:14;100077.78;;;3.52;100.00
39265;BME280;42646;51.910;7.724;2022-12-08T08:24:07;100075.03;;;3.53;100.00
39265;BME280;42646;51.910;7.724;2022-12-08T08:26:35;100080.53;;;3.50;100.00
39265;BME280;42646;51.910;7.724;2022-12-08T08:29:02;100084.00;;;3.51;100.00
39265;BME280;42646;51.910;7.724;2022-12-08T08:31:32;100084.72;;;3.53;100.00
39265;BME280;42646;51.910;7.724;2022-12-08T08:34:01;100092.72;;;3.51;100.00
39265;BME280;42646;51.910;7.724;2022-12-08T08:36:31;100097.75;;;3.54;100.00
39265;BME280;42646;51.910;7.724;2022-12-08T08:39:00;100098.06;;;3.49;100.00
39265;BME280;42646;51.910;7.724;2022-12-08T08:41:30;100102.41;;;3.51;100.00
39265;BME280;42646;51.910;7.724;2022-12-08T08:43:58;100096.31;;;3.50;100.00
39265;BME280;42646;51.910;7.724;2022-12-08T08:46:28;100099.03;;;3.48;100.00
39265;BME280;42646;51.910;7.724;2022-12-08T08:48:56;100103.25;;;3.51;100.00
39265;BME280;42646;51.910;7.724;2022-12-08T08:51:26;100105.97;;;3.49;100.00
39265;BME280;42646;51.910;7.724;2022-12-08T08:53:56;100103.13;;;3.53;100.00
39265;BME280;42646;51.910;7.724;2022-12-08T08:56:25;100106.91;;;3.48;100.00
39265;BME280;42646;51.910;7.724;2022-12-08T08:58:53;100107.44;;;3.54;100.00
39265;BME280;42646;51.910;7.724;2022-12-08T09:01:23;100109.47;;;3.50;100.00
39265;BME280;42646;51.910;7.724;2022-12-08T09:03:51;100108.59;;;3.49;100.00
39265;BME280;42646;51.910;7.724;2022-12-08T09:06:19;100111.97;;;3.52;100.00
39265;BME280;42646;51.910;7.724;2022-12-08T09:08:49;100106.59;;;3.53;100.00
39265;BME280;42646;51.910;7.724;2022-12-08T09:11:18;100107.56;;;3.52;100.00
39265;BME280;42646;51.910;7.724;2022-12-08T09:13:46;100112.19;;;3.48;100.00
39265;BME280;42646;51.910;7.724;2022-12-08T09:16:19;100110.31;;;3.51;100.00
39265;BME280;42646;51.910;7.724;2022-12-08T09:18:47;100113.78;;;3.51;100.00
39265;BME280;42646;51.910;7.724;2022-12-08T09:21:18;100107.44;;;3.54;100.00
39265;BME280;42646;51.910;7.724;2022-12-08T09:23:52;100115.34;;;3.54;100.00
39265;BME280;42646;51.910;7.724;2022-12-08T09:26:20;100123.22;;;3.54;100.00
39265;BME280;42646;51.910;7.724;2022-12-08T09:28:49;100111.03;;;3.53;100.00
39265;BME280;42646;51.910;7.724;2022-12-08T09:31:20;100107.56;;;3.52;100.00
39265;BME280;42646;51.910;7.724;2022-12-08T09:33:49;100113.78;;;3.51;100.00
39265;BME280;42646;51.910;7.724;2022-12-08T09:36:18;100105.88;;;3.51;100.00
39265;BME280;42646;51.910;7.724;2022-12-08T09:38:46;100106.72;;;3.52;100.00
39265;BME280;42646;51.910;7.724;2022-12-08T09:41:28;100111.13;;;3.51;100.00
39265;BME280;42646;51.910;7.724;2022-12-08T09:44:36;100105.03;;;3.51;100.00
39265;BME280;42646;51.910;7.724;2022-12-08T09:47:15;100100.69;;;3.49;100.00
39265;BME280;42646;51.910;7.724;2022-12-08T09:49:52;100098.94;;;3.50;100.00
39265;BME280;42646;51.910;7.724;2022-12-08T09:52:24;100099.66;;;3.52;100.00
39265;BME280;42646;51.910;7.724;2022-12-08T09:54:55;100107.56;;;3.52;100.00
39265;BME280;42646;51.910;7.724;2022-12-08T09:57:28;100104.09;;;3.52;100.00
39265;BME280;42646;51.910;7.724;2022-12-08T09:59:58;100101.34;;;3.53;100.00
39265;BME280;42646;51.910;7.724;2022-12-08T10:02:31;100097.03;;;3.52;100.00
39265;BME280;42646;51.910;7.724;2022-12-08T10:04:58;100098.72;;;3.53;100.00
39265;BME280;42646;51.910;7.724;2022-12-08T10:07:36;100097.75;;;3.54;100.00
39265;BME280;42646;51.910;7.724;2022-12-08T10:10:12;100101.16;;;3.56;100.00
39265;BME280;42646;51.910;7.724;2022-12-08T10:12:53;100105.44;;;3.57;100.00
39265;BME280;42646;51.910;7.724;2022-12-08T10:15:39;100105.53;;;3.56;100.00
39265;BME280;42646;51.910;7.724;2022-12-08T10:18:13;100107.25;;;3.57;100.00
39265;BME280;42646;51.910;7.724;2022-12-08T10:20:43;100104.63;;;3.57;100.00
39265;BME280;42646;51.910;7.724;2022-12-08T10:23:20;100103.84;;;3.55;100.00
39265;BME280;42646;51.910;7.724;2022-12-08T10:25:54;100101.16;;;3.56;100.00
39265;BME280;42646;51.910;7.724;2022-12-08T10:28:27;100097.44;;;3.59;100.00
39265;BME280;42646;51.910;7.724;2022-12-08T10:30:56;100096.59;;;3.58;100.00
39265;BME280;42646;51.910;7.724;2022-12-08T10:33:25;100097.25;;;3.62;100.00
39265;BME280;42646;51.910;7.724;2022-12-08T10:35:56;100087.44;;;3.64;100.00
39265;BME280;42646;51.910;7.724;2022-12-08T10:38:28;100091.63;;;3.66;100.00
39265;BME280;42646;51.910;7.724;2022-12-08T10:41:05;100092.28;;;3.70;100.00
39265;BME280;42646;51.910;7.724;2022-12-08T10:43:36;100086.19;;;3.69;100.00
39265;BME280;42646;51.910;7.724;2022-12-08T10:46:10;100083.44;;;3.71;100.00
39265;BME280;42646;51.910;7.724;2022-12-08T10:48:50;100093.00;;;3.72;100.00
39265;BME280;42646;51.910;7.724;2022-12-08T10:51:24;100088.50;;;3.74;100.00
39265;BME280;42646;51.910;7.724;2022-12-08T10:53:53;100087.28;;;3.78;100.00
39265;BME280;42646;51.910;7.724;2022-12-08T10:56:24;100089.09;;;3.78;100.00
39265;BME280;42646;51.910;7.724;2022-12-08T10:59:06;100082.78;;;3.80;100.00
39265;BME280;42646;51.910;7.724;2022-12-08T11:01:40;100085.41;;;3.80;100.00
39265;BME280;42646;51.910;7.724;2022-12-08T11:04:12;100086.47;;;3.78;100.00
39265;BME280;42646;51.910;7.724;2022-12-08T11:06:42;100091.59;;;3.79;100.00
39265;BME280;42646;51.910;7.724;2022-12-08T11:09:35;100082.88;;;3.79;100.00
39265;BME280;42646;51.910;7.724;2022-12-08T11:12:07;100083.00;;;3.77;100.00
39265;BME280;42646;51.910;7.724;2022-12-08T11:14:48;100077.72;;;3.77;100.00
39265;BME280;42646;51.910;7.724;2022-12-08T11:17:43;100072.47;;;3.77;100.00
39265;BME280;42646;51.910;7.724;2022-12-08T11:20:23;100075.81;;;3.79;100.00
39265;BME280;42646;51.910;7.724;2022-12-08T11:23:20;100077.28;;;3.83;100.00
39265;BME280;42646;51.910;7.724;2022-12-08T11:25:49;100076.47;;;3.83;100.00
39265;BME280;42646;51.910;7.724;2022-12-08T11:28:22;100073.72;;;3.84;100.00
39265;BME280;42646;51.910;7.724;2022-12-08T11:30:57;100074.66;;;3.83;100.00
39265;BME280;42646;51.910;7.724;2022-12-08T11:33:27;100064.97;;;3.84;100.00
39265;BME280;42646;51.910;7.724;2022-12-08T11:35:59;100071.72;;;3.88;100.00
39265;BME280;42646;51.910;7.724;2022-12-08T11:38:29;100063.09;;;3.86;100.00
39265;BME280;42646;51.910;7.724;2022-12-08T11:41:03;100061.31;;;3.86;100.00
39265;BME280;42646;51.910;7.724;2022-12-08T11:43:45;100060.03;;;3.92;100.00
39265;BME280;42646;51.910;7.724;2022-12-08T11:46:20;100060.03;;;3.92;100.00
39265;BME280;42646;51.910;7.724;2022-12-08T11:48:52;100058.44;;;3.89;100.00
39265;BME280;42646;51.910;7.724;2022-12-08T11:51:26;100062.75;;;3.90;100.00
39265;BME280;42646;51.910;7.724;2022-12-08T11:54:11;100058.31;;;3.91;100.00
39265;BME280;42646;51.910;7.724;2022-12-08T11:56:43;100060.84;;;3.92;100.00
39265;BME280;42646;51.910;7.724;2022-12-08T11:59:17;100063.38;;;3.94;100.00
39265;BME280;42646;51.910;7.724;2022-12-08T12:01:49;100061.38;;;3.97;100.00
39265;BME280;42646;51.910;7.724;2022-12-08T12:04:22;100049.88;;;3.98;100.00
39265;BME280;42646;51.910;7.724;2022-12-08T12:07:25;100052.41;;;4.00;100.00
39265;BME280;42646;51.910;7.724;2022-12-08T12:10:08;100056.72;;;4.01;100.00
39265;BME280;42646;51.910;7.724;2022-12-08T12:12:52;100047.03;;;4.01;100.00
39265;BME280;42646;51.910;7.724;2022-12-08T12:15:50;100048.59;;;4.04;100.00
39265;BME280;42646;51.910;7.724;2022-12-08T12:18:26;100048.59;;;4.04;100.00
39265;BME280;42646;51.910;7.724;2022-12-08T12:20:58;100049.31;;;4.06;100.00
39265;BME280;42646;51.910;7.724;2022-12-08T12:23:35;100050.03;;;4.08;100.00
39265;BME280;42646;51.910;7.724;2022-12-08T12:26:05;100046.47;;;4.09;100.00
39265;BME280;42646;51.910;7.724;2022-12-08T12:28:40;100049.00;;;4.11;100.00
39265;BME280;42646;51.910;7.724;2022-12-08T12:31:13;100038.34;;;4.12;100.00
39265;BME280;42646;51.910;7.724;2022-12-08T12:33:45;100036.34;;;4.16;100.00
39265;BME280;42646;51.910;7.724;2022-12-08T12:36:14;100035.38;;;4.17;100.00
39265;BME280;42646;51.910;7.724;2022-12-08T12:38:45;100034.53;;;4.16;100.00
39265;BME280;42646;51.910;7.724;2022-12-08T12:41:36;100039.56;;;4.19;100.00
39265;BME280;42646;51.910;7.724;2022-12-08T12:44:38;100040.41;;;4.20;100.00
39265;BME280;42646;51.910;7.724;2022-12-08T12:47:12;100038.72;;;4.19;100.00
39265;BME280;42646;51.910;7.724;2022-12-08T12:50:07;100039.69;;;4.18;100.00
39265;BME280;42646;51.910;7.724;2022-12-08T12:52:45;100041.38;;;4.19;100.00
39265;BME280;42646;51.910;7.724;2022-12-08T12:55:51;100034.19;;;4.21;100.00
39265;BME280;42646;51.910;7.724;2022-12-08T12:58:35;100039.34;;;4.22;100.00
39265;BME280;42646;51.910;7.724;2022-12-08T13:04:33;100030.50;;;4.23;100.00
39265;BME280;42646;51.910;7.724;2022-12-08T13:07:04;100033.13;;;4.23;100.00
39265;BME280;42646;51.910;7.724;2022-12-08T13:09:34;100033.97;;;4.24;100.00
39265;BME280;42646;51.910;7.724;2022-12-08T13:12:08;100025.88;;;4.27;100.00
39265;BME280;42646;51.910;7.724;2022-12-08T13:14:42;100022.47;;;4.25;100.00
39265;BME280;42646;51.910;7.724;2022-12-08T13:17:16;100019.97;;;4.23;100.00
39265;BME280;42646;51.910;7.724;2022-12-08T13:19:47;100025.25;;;4.23;100.00
39265;BME280;42646;51.910;7.724;2022-12-08T13:25:47;100023.31;;;4.25;100.00
39265;BME280;42646;51.910;7.724;2022-12-08T13:28:27;100026.06;;;4.24;100.00